createdAt,value
2022-12-27T00:01:56.490Z,16.28
2022-12-27T00:04:23.793Z,16.26
2022-12-27T00:06:50.718Z,16.25
2022-12-27T00:09:17.639Z,16.22
2022-12-27T00:11:45.221Z,16.18
2022-12-27T00:14:12.304Z,16.13
2022-12-27T00:16:39.508Z,16.08
2022-12-27T00:19:06.543Z,16.09
2022-12-27T00:21:33.303Z,16.04
2022-12-27T00:24:00.738Z,16.00
2022-12-27T00:26:30.044Z,15.97
2022-12-27T00:28:57.460Z,15.95
2022-12-27T00:31:26.911Z,15.94
2022-12-27T00:33:55.832Z,15.86
2022-12-27T00:36:25.570Z,15.85
2022-12-27T00:38:53.562Z,15.84
2022-12-27T00:41:20.555Z,15.86
2022-12-27T00:43:47.891Z,15.82
2022-12-27T00:46:15.085Z,15.83
2022-12-27T00:48:41.888Z,15.85
2022-12-27T00:51:19.413Z,15.86
2022-12-27T00:53:48.656Z,15.79
2022-12-27T00:56:21.957Z,15.75
2022-12-27T00:58:53.239Z,15.73
2022-12-27T01:01:21.750Z,15.77
2022-12-27T01:03:48.757Z,15.72
2022-12-27T01:06:18.794Z,15.71
2022-12-27T01:08:46.387Z,15.67
2022-12-27T01:11:15.044Z,15.68
2022-12-27T01:13:42.543Z,15.72
2022-12-27T01:16:11.833Z,15.68
2022-12-27T01:18:38.544Z,15.75
2022-12-27T01:21:10.108Z,15.71
2022-12-27T01:23:37.467Z,15.68
2022-12-27T01:26:06.747Z,15.73
2022-12-27T01:28:34.019Z,15.68
2022-12-27T01:31:08.959Z,15.68
2022-12-27T01:33:35.751Z,15.67
2022-12-27T01:36:16.744Z,15.62
2022-12-27T01:38:43.566Z,15.58
2022-12-27T01:41:57.096Z,15.59
2022-12-27T01:44:43.592Z,15.51
2022-12-27T01:47:12.953Z,15.53
2022-12-27T01:49:40.924Z,15.57
2022-12-27T01:52:11.617Z,15.57
2022-12-27T01:54:39.086Z,15.53
2022-12-27T01:57:06.458Z,15.53
2022-12-27T01:59:34.246Z,15.52
2022-12-27T02:02:01.463Z,15.53
2022-12-27T02:04:30.677Z,15.54
2022-12-27T02:06:58.089Z,15.48
2022-12-27T02:09:44.778Z,15.37
2022-12-27T02:12:11.925Z,15.28
2022-12-27T02:14:47.004Z,15.41
2022-12-27T02:17:18.894Z,15.32
2022-12-27T02:20:12.719Z,15.27
2022-12-27T02:23:39.545Z,15.45
2022-12-27T02:26:32.581Z,15.36
2022-12-27T02:29:19.928Z,15.26
2022-12-27T02:31:57.092Z,15.30
2022-12-27T02:34:31.271Z,15.32
2022-12-27T02:37:04.228Z,15.24
2022-12-27T02:39:36.107Z,15.19
2022-12-27T02:42:22.031Z,15.24
2022-12-27T02:45:07.749Z,15.29
2022-12-27T02:47:54.270Z,15.17
2022-12-27T02:50:40.079Z,15.12
2022-12-27T02:53:19.009Z,15.06
2022-12-27T02:56:25.213Z,15.14
2022-12-27T02:59:09.874Z,15.05
2022-12-27T03:02:13.977Z,15.13
2022-12-27T03:05:30.532Z,15.19
2022-12-27T03:08:13.831Z,15.15
2022-12-27T03:11:01.986Z,15.03
2022-12-27T03:14:15.872Z,15.10
2022-12-27T03:16:58.661Z,15.08
2022-12-27T03:19:58.073Z,15.02
2022-12-27T03:22:47.220Z,14.99
2022-12-27T03:25:28.424Z,15.10
2022-12-27T03:28:22.848Z,14.93
2022-12-27T03:31:15.600Z,15.01
2022-12-27T03:33:43.165Z,14.95
2022-12-27T03:36:41.148Z,14.99
2022-12-27T03:39:16.950Z,14.99
2022-12-27T03:42:09.664Z,14.89
2022-12-27T03:44:36.324Z,14.91
2022-12-27T03:47:32.073Z,14.86
2022-12-27T03:50:07.871Z,14.85
2022-12-27T03:52:44.139Z,14.89
2022-12-27T03:55:11.929Z,14.83
2022-12-27T03:57:39.760Z,14.84
2022-12-27T04:00:07.160Z,14.83
2022-12-27T04:02:40.761Z,14.86
2022-12-27T04:05:07.958Z,14.86
2022-12-27T04:07:34.941Z,14.78
2022-12-27T04:10:20.340Z,14.78
2022-12-27T04:13:05.686Z,14.85
2022-12-27T04:15:51.241Z,14.73
2022-12-27T04:18:36.579Z,14.80
2022-12-27T04:21:21.695Z,14.71
2022-12-27T04:24:07.279Z,14.73
2022-12-27T04:26:52.588Z,14.73
2022-12-27T04:29:37.535Z,14.74
2022-12-27T04:32:23.146Z,14.68
2022-12-27T04:34:49.794Z,14.62
2022-12-27T04:37:18.967Z,14.71
2022-12-27T04:40:10.645Z,14.72
2022-12-27T04:42:55.694Z,14.70
2022-12-27T04:45:41.614Z,14.62
2022-12-27T04:48:34.355Z,14.67
2022-12-27T04:51:20.462Z,14.47
2022-12-27T04:54:05.947Z,14.53
2022-12-27T04:56:32.772Z,14.67
2022-12-27T04:59:18.275Z,14.74
2022-12-27T05:02:03.495Z,14.51
2022-12-27T05:04:32.450Z,14.43
2022-12-27T05:07:19.635Z,14.49
2022-12-27T05:10:05.261Z,14.46
2022-12-27T05:12:50.176Z,14.56
2022-12-27T05:15:16.876Z,14.57
2022-12-27T05:17:43.660Z,14.57
2022-12-27T05:20:11.188Z,14.48
2022-12-27T05:22:56.383Z,14.45
2022-12-27T05:25:35.395Z,14.58
2022-12-27T05:28:03.229Z,14.51
2022-12-27T05:30:32.823Z,14.36
2022-12-27T05:32:59.484Z,14.48
2022-12-27T05:35:26.086Z,14.49
2022-12-27T05:37:55.843Z,14.42
2022-12-27T05:40:23.388Z,14.35
2022-12-27T05:42:50.569Z,14.42
2022-12-27T05:45:17.655Z,14.33
2022-12-27T05:47:44.550Z,14.23
2022-12-27T05:50:11.694Z,14.20
2022-12-27T05:52:41.177Z,14.33
2022-12-27T05:55:08.744Z,14.32
2022-12-27T05:57:35.397Z,14.32
2022-12-27T06:00:02.995Z,14.33
2022-12-27T06:02:39.590Z,14.01
2022-12-27T06:05:06.891Z,14.00
2022-12-27T06:07:35.905Z,14.12
2022-12-27T06:10:04.059Z,14.26
2022-12-27T06:12:31.321Z,14.42
2022-12-27T06:14:58.156Z,14.41
2022-12-27T06:17:25.071Z,14.44
2022-12-27T06:19:56.781Z,14.27
2022-12-27T06:22:24.642Z,14.34
2022-12-27T06:24:51.400Z,14.39
2022-12-27T06:27:17.942Z,14.29
2022-12-27T06:29:44.528Z,14.27
2022-12-27T06:32:11.281Z,14.19
2022-12-27T06:34:38.184Z,14.17
2022-12-27T06:37:04.905Z,14.13
2022-12-27T06:39:31.626Z,14.18
2022-12-27T06:41:58.349Z,14.11
2022-12-27T06:44:26.198Z,14.18
2022-12-27T06:46:52.969Z,14.18
2022-12-27T06:49:19.694Z,14.16
2022-12-27T06:51:52.560Z,14.22
2022-12-27T06:54:22.686Z,14.05
2022-12-27T06:56:49.523Z,14.14
2022-12-27T06:59:16.126Z,14.14
2022-12-27T07:01:42.992Z,14.07
2022-12-27T07:04:10.538Z,14.12
2022-12-27T07:06:56.167Z,13.92
2022-12-27T07:09:22.873Z,13.93
2022-12-27T07:11:49.681Z,14.01
2022-12-27T07:14:16.479Z,13.99
2022-12-27T07:16:43.330Z,14.05
2022-12-27T07:19:10.526Z,13.96
2022-12-27T07:21:37.342Z,14.03
2022-12-27T07:24:04.463Z,14.09
2022-12-27T07:26:31.259Z,14.07
2022-12-27T07:29:00.946Z,13.87
2022-12-27T07:31:33.464Z,13.89
2022-12-27T07:34:02.573Z,13.89
2022-12-27T07:36:34.102Z,13.93
2022-12-27T07:39:00.789Z,13.92
2022-12-27T07:41:27.791Z,13.85
2022-12-27T07:43:54.896Z,13.86
2022-12-27T07:46:24.307Z,13.88
2022-12-27T07:48:54.183Z,13.92
2022-12-27T07:51:21.207Z,13.92
2022-12-27T07:53:49.474Z,13.93
2022-12-27T07:56:25.452Z,13.96
2022-12-27T07:58:54.286Z,13.85
2022-12-27T08:01:22.579Z,13.86
2022-12-27T08:03:49.766Z,13.82
2022-12-27T08:06:29.978Z,13.80
2022-12-27T08:08:59.234Z,13.77
2022-12-27T08:11:30.157Z,13.90
2022-12-27T08:13:57.142Z,13.91
2022-12-27T08:16:26.003Z,13.80
2022-12-27T08:18:53.836Z,13.88
2022-12-27T08:21:20.771Z,13.87
2022-12-27T08:23:47.606Z,13.79
2022-12-27T08:26:14.970Z,13.78
2022-12-27T08:28:41.832Z,13.75
2022-12-27T08:31:13.814Z,13.75
2022-12-27T08:33:41.941Z,13.74
2022-12-27T08:36:36.825Z,13.86
2022-12-27T08:38:57.790Z,13.85
2022-12-27T08:41:24.619Z,13.85
2022-12-27T08:43:51.223Z,13.83
2022-12-27T08:46:19.753Z,13.65
2022-12-27T08:48:50.673Z,13.65
2022-12-27T08:51:26.550Z,13.68
2022-12-27T08:53:58.375Z,13.69
2022-12-27T08:56:25.191Z,13.63
2022-12-27T08:58:52.040Z,13.68
2022-12-27T09:01:19.084Z,13.49
2022-12-27T09:03:46.239Z,13.61
2022-12-27T09:06:18.674Z,13.72
2022-12-27T09:08:47.473Z,13.88
2022-12-27T09:11:16.853Z,13.81
2022-12-27T09:13:43.651Z,13.89
2022-12-27T09:16:13.538Z,13.98
2022-12-27T09:18:41.893Z,14.09
2022-12-27T09:21:13.887Z,14.25
2022-12-27T09:23:41.726Z,14.45
2022-12-27T09:26:15.058Z,14.70
2022-12-27T09:28:42.621Z,15.06
2022-12-27T09:31:11.241Z,15.30
2022-12-27T09:33:38.439Z,15.48
2022-12-27T09:36:17.410Z,15.60
2022-12-27T09:38:45.390Z,15.73
2022-12-27T09:42:33.817Z,15.89
2022-12-27T09:44:22.991Z,16.04
2022-12-27T09:46:59.309Z,16.12
2022-12-27T09:50:12.664Z,16.22
2022-12-27T09:52:53.698Z,16.21
2022-12-27T09:55:43.209Z,16.19
2022-12-27T09:58:30.980Z,16.21
2022-12-27T10:00:57.851Z,16.29
2022-12-27T10:03:27.186Z,16.32
2022-12-27T10:05:58.640Z,16.34
2022-12-27T10:08:35.085Z,16.37
2022-12-27T10:11:04.321Z,16.42
2022-12-27T10:13:33.739Z,16.43
2022-12-27T10:16:18.763Z,16.46
2022-12-27T10:19:12.864Z,16.51
2022-12-27T10:21:52.843Z,16.52
2022-12-27T10:24:26.376Z,16.60
2022-12-27T10:26:55.726Z,16.62
2022-12-27T10:29:23.892Z,16.63
2022-12-27T10:31:51.336Z,16.64
2022-12-27T10:34:24.622Z,16.63
2022-12-27T10:37:15.369Z,16.69
2022-12-27T10:39:43.031Z,16.71
2022-12-27T10:42:15.720Z,16.77
2022-12-27T10:44:42.427Z,16.75
2022-12-27T10:47:09.211Z,16.78
2022-12-27T10:49:36.488Z,16.76
2022-12-27T10:52:19.680Z,16.78
2022-12-27T10:54:55.087Z,16.80
2022-12-27T10:57:25.525Z,16.82
2022-12-27T11:00:19.832Z,16.83
2022-12-27T11:02:54.862Z,16.82
2022-12-27T11:05:27.880Z,16.85
2022-12-27T11:07:55.687Z,16.90
2022-12-27T11:10:28.241Z,16.91
2022-12-27T11:12:56.626Z,16.95
2022-12-27T11:15:24.321Z,16.96
2022-12-27T11:17:55.118Z,16.97
2022-12-27T11:20:33.167Z,16.98
2022-12-27T11:23:03.977Z,17.01
2022-12-27T11:25:33.285Z,17.06
2022-12-27T11:28:22.773Z,17.13
2022-12-27T11:30:57.253Z,17.12
2022-12-27T11:33:45.353Z,17.11
2022-12-27T11:36:13.566Z,17.14
2022-12-27T11:38:45.078Z,17.19
2022-12-27T11:41:17.003Z,17.20
2022-12-27T11:44:19.643Z,17.28
2022-12-27T11:47:02.204Z,17.37
2022-12-27T11:49:37.014Z,17.42
2022-12-27T11:52:35.447Z,17.42
2022-12-27T11:55:23.919Z,17.45
2022-12-27T11:58:14.459Z,17.48
2022-12-27T12:01:05.249Z,17.57
2022-12-27T12:04:03.736Z,17.59
2022-12-27T12:06:48.552Z,17.60
2022-12-27T12:09:18.308Z,17.62
2022-12-27T12:12:09.557Z,17.70
2022-12-27T12:14:42.216Z,17.69
2022-12-27T12:17:50.837Z,17.72
2022-12-27T12:20:28.402Z,17.78
2022-12-27T12:22:55.122Z,17.77
2022-12-27T12:25:52.360Z,17.69
2022-12-27T12:31:57.634Z,17.67
2022-12-27T12:34:51.799Z,17.61
2022-12-27T12:37:43.012Z,17.63
2022-12-27T12:40:51.893Z,17.63
2022-12-27T12:43:43.409Z,17.63
2022-12-27T12:46:33.528Z,17.64
2022-12-27T12:49:05.997Z,17.63
2022-12-27T12:52:00.615Z,17.64
2022-12-27T12:54:51.941Z,17.61
2022-12-27T12:57:27.737Z,17.60
2022-12-27T13:00:00.174Z,17.55
2022-12-27T13:02:45.598Z,17.61
2022-12-27T13:05:51.866Z,17.58
2022-12-27T13:08:44.467Z,17.51
2022-12-27T13:11:26.421Z,17.65
2022-12-27T13:14:26.800Z,17.67
2022-12-27T13:17:06.538Z,17.72
2022-12-27T13:20:08.097Z,17.79
2022-12-27T13:22:50.311Z,17.79
2022-12-27T13:25:43.122Z,17.84
2022-12-27T13:28:31.410Z,17.87
2022-12-27T13:31:16.790Z,17.87
2022-12-27T13:33:54.790Z,17.91
2022-12-27T13:36:33.667Z,17.93
2022-12-27T13:39:44.522Z,17.94
2022-12-27T13:42:26.128Z,17.94
2022-12-27T13:45:06.942Z,17.87
2022-12-27T13:47:55.516Z,17.89
2022-12-27T13:50:40.536Z,17.89
2022-12-27T13:53:25.742Z,17.86
2022-12-27T13:59:29.896Z,17.85
2022-12-27T14:02:15.462Z,17.85
2022-12-27T14:04:52.322Z,17.86
2022-12-27T14:07:52.440Z,17.85
2022-12-27T14:10:21.814Z,17.86
2022-12-27T14:12:51.297Z,17.81
2022-12-27T14:15:42.508Z,17.80
2022-12-27T14:18:22.691Z,17.78
2022-12-27T14:20:57.972Z,17.76
2022-12-27T14:23:49.131Z,17.80
2022-12-27T14:26:46.528Z,17.80
2022-12-27T14:29:38.594Z,17.78
2022-12-27T14:32:33.470Z,17.79
2022-12-27T14:35:16.134Z,17.78
2022-12-27T14:38:22.652Z,17.76
2022-12-27T14:41:17.066Z,17.79
2022-12-27T14:44:01.704Z,17.80
2022-12-27T14:46:47.127Z,17.80
2022-12-27T14:49:32.608Z,17.81
2022-12-27T14:52:43.937Z,17.79
2022-12-27T14:55:48.969Z,17.78
2022-12-27T14:58:41.167Z,17.79
2022-12-27T15:01:33.133Z,17.76
2022-12-27T15:13:14.283Z,17.75
2022-12-27T15:15:52.745Z,17.73
2022-12-27T15:18:44.483Z,17.74
2022-12-27T15:21:35.794Z,17.74
2022-12-27T15:24:11.366Z,17.72
2022-12-27T15:26:47.957Z,17.77
2022-12-27T15:29:46.691Z,17.81
2022-12-27T15:32:53.287Z,17.85
2022-12-27T15:35:32.021Z,17.85
2022-12-27T15:38:10.808Z,17.87
2022-12-27T15:40:47.893Z,17.92
2022-12-27T15:43:47.806Z,17.97
2022-12-27T15:46:50.674Z,17.90
2022-12-27T15:49:39.043Z,17.97
2022-12-27T15:52:36.370Z,18.01
2022-12-27T15:55:39.787Z,17.98
2022-12-27T15:58:22.859Z,17.98
2022-12-27T16:01:25.257Z,17.98
2022-12-27T16:03:53.845Z,17.88
2022-12-27T16:06:35.608Z,18.02
2022-12-27T16:09:20.972Z,18.04
2022-12-27T16:12:35.613Z,18.07
2022-12-27T16:15:41.033Z,17.94
2022-12-27T16:18:33.459Z,17.84
2022-12-27T16:21:03.005Z,17.84
2022-12-27T16:23:31.996Z,17.75
2022-12-27T16:26:19.702Z,17.77
2022-12-27T16:28:52.354Z,17.77
2022-12-27T16:31:32.247Z,17.72
2022-12-27T16:34:13.150Z,17.70
2022-12-27T16:36:49.923Z,17.68
2022-12-27T16:39:28.479Z,17.65
2022-12-27T16:41:55.299Z,17.60
2022-12-27T16:44:24.636Z,17.57
2022-12-27T16:46:57.545Z,17.60
2022-12-27T16:49:30.602Z,17.54
2022-12-27T16:52:21.597Z,17.53
2022-12-27T16:55:25.805Z,17.52
2022-12-27T16:57:52.546Z,17.53
2022-12-27T17:00:40.399Z,17.56
2022-12-27T17:03:22.219Z,17.57
2022-12-27T17:06:30.153Z,17.66
2022-12-27T17:08:36.933Z,17.71
2022-12-27T17:11:30.472Z,17.76
2022-12-27T17:14:30.793Z,17.70
2022-12-27T17:17:12.171Z,17.68
2022-12-27T17:19:45.516Z,17.65
2022-12-27T17:22:16.085Z,17.68
2022-12-27T17:24:45.540Z,17.69
2022-12-27T17:27:12.547Z,17.79
2022-12-27T17:30:04.014Z,17.81
2022-12-27T17:32:33.433Z,17.79
2022-12-27T17:35:09.301Z,17.83
2022-12-27T17:38:14.751Z,17.81
2022-12-27T17:40:54.589Z,17.77
2022-12-27T17:44:02.583Z,17.83
2022-12-27T17:49:53.059Z,17.85
2022-12-27T17:52:42.928Z,17.93
2022-12-27T17:55:47.301Z,17.78
2022-12-27T17:58:16.424Z,17.70
2022-12-27T18:00:54.921Z,17.63
2022-12-27T18:03:23.417Z,17.64
2022-12-27T18:05:50.549Z,17.61
2022-12-27T18:08:28.743Z,17.60
2022-12-27T18:11:00.949Z,17.59
2022-12-27T18:13:32.379Z,17.55
2022-12-27T18:16:00.627Z,17.55
2022-12-27T18:18:31.859Z,17.47
2022-12-27T18:21:02.329Z,17.46
2022-12-27T18:23:29.626Z,17.44
2022-12-27T18:26:04.905Z,17.43
2022-12-27T18:28:35.026Z,17.43
2022-12-27T18:31:16.635Z,17.40
2022-12-27T18:33:50.716Z,17.40
2022-12-27T18:36:47.330Z,17.34
2022-12-27T18:39:26.008Z,17.29
2022-12-27T18:41:54.210Z,17.31
2022-12-27T18:44:27.424Z,17.26
2022-12-27T18:46:57.663Z,17.30
2022-12-27T18:49:26.958Z,17.28
2022-12-27T18:51:55.152Z,17.27
2022-12-27T18:54:27.773Z,17.26
2022-12-27T18:56:55.846Z,17.22
2022-12-27T18:59:31.596Z,17.22
2022-12-27T19:02:01.465Z,17.21
2022-12-27T19:04:32.702Z,17.20
2022-12-27T19:07:14.422Z,17.20
2022-12-27T19:09:53.715Z,17.21
2022-12-27T19:12:29.477Z,17.16
2022-12-27T19:14:56.590Z,17.15
2022-12-27T19:17:26.445Z,17.19
2022-12-27T19:19:56.261Z,17.16
2022-12-27T19:22:48.614Z,17.20
2022-12-27T19:25:18.439Z,17.13
2022-12-27T19:27:56.766Z,17.15
2022-12-27T19:30:45.083Z,17.16
2022-12-27T19:33:32.776Z,17.11
2022-12-27T19:36:00.587Z,17.06
2022-12-27T19:38:29.130Z,17.12
2022-12-27T19:41:03.323Z,17.09
2022-12-27T19:43:37.235Z,17.11
2022-12-27T19:46:04.003Z,17.08
2022-12-27T19:48:30.688Z,17.07
2022-12-27T19:50:58.035Z,17.12
2022-12-27T19:53:31.035Z,17.04
2022-12-27T19:55:58.412Z,17.04
2022-12-27T19:58:27.594Z,17.01
2022-12-27T20:00:55.299Z,17.07
2022-12-27T20:03:22.073Z,17.07
2022-12-27T20:06:13.259Z,17.04
2022-12-27T20:08:48.513Z,17.02
2022-12-27T20:11:19.899Z,17.02
2022-12-27T20:13:47.446Z,17.01
2022-12-27T20:16:17.646Z,17.01
2022-12-27T20:18:45.013Z,17.01
2022-12-27T20:21:13.515Z,17.01
2022-12-27T20:23:41.287Z,17.01
2022-12-27T20:26:08.619Z,16.98
2022-12-27T20:28:35.925Z,16.99
2022-12-27T20:31:12.218Z,16.99
2022-12-27T20:33:39.396Z,16.98
2022-12-27T20:36:07.685Z,16.98
2022-12-27T20:38:34.697Z,16.99
2022-12-27T20:41:09.071Z,16.97
2022-12-27T20:43:36.353Z,16.96
2022-12-27T20:46:05.266Z,16.92
2022-12-27T20:48:32.185Z,16.99
2022-12-27T20:50:58.781Z,16.97
2022-12-27T20:53:27.897Z,16.95
2022-12-27T20:55:59.084Z,16.95
2022-12-27T20:58:26.170Z,16.97
2022-12-27T21:00:53.098Z,16.94
2022-12-27T21:03:20.170Z,16.93
2022-12-27T21:05:47.074Z,16.95
2022-12-27T21:08:13.755Z,16.93
2022-12-27T21:10:40.711Z,16.96
2022-12-27T21:13:07.912Z,16.93
2022-12-27T21:15:40.414Z,16.89
2022-12-27T21:18:09.128Z,16.99
2022-12-27T21:20:35.959Z,16.95
2022-12-27T21:23:02.754Z,17.06
2022-12-27T21:25:29.737Z,17.14
2022-12-27T21:27:56.561Z,17.12
2022-12-27T21:30:23.188Z,17.09
2022-12-27T21:32:49.832Z,17.09
2022-12-27T21:35:16.512Z,17.09
2022-12-27T21:37:43.200Z,17.14
2022-12-27T21:40:13.093Z,17.10
2022-12-27T21:42:40.001Z,17.12
2022-12-27T21:45:07.248Z,17.12
2022-12-27T21:47:34.028Z,17.11
2022-12-27T21:50:00.619Z,17.10
2022-12-27T21:52:28.931Z,17.07
2022-12-27T21:54:55.701Z,17.04
2022-12-27T21:57:22.443Z,17.05
2022-12-27T21:59:49.033Z,17.03
2022-12-27T22:02:15.884Z,17.08
2022-12-27T22:04:42.746Z,17.05
2022-12-27T22:07:09.483Z,17.05
2022-12-27T22:09:36.987Z,17.03
2022-12-27T22:12:03.846Z,16.99
2022-12-27T22:14:36.582Z,16.98
2022-12-27T22:17:04.163Z,16.94
2022-12-27T22:19:30.904Z,16.96
2022-12-27T22:21:57.621Z,16.90
2022-12-27T22:24:24.384Z,16.85
2022-12-27T22:26:51.097Z,16.91
2022-12-27T22:29:17.847Z,16.85
2022-12-27T22:31:44.550Z,16.85
2022-12-27T22:34:11.271Z,16.88
2022-12-27T22:36:37.933Z,16.81
2022-12-27T22:39:04.798Z,16.74
2022-12-27T22:41:33.908Z,16.71
2022-12-27T22:44:10.485Z,16.69
2022-12-27T22:49:24.235Z,16.59
2022-12-27T22:51:50.855Z,16.51
2022-12-27T22:54:17.501Z,16.50
2022-12-27T22:56:44.554Z,16.55
2022-12-27T22:59:14.252Z,16.44
2022-12-27T23:01:43.666Z,16.36
2022-12-27T23:04:12.407Z,16.31
2022-12-27T23:06:40.121Z,16.28
2022-12-27T23:09:07.881Z,16.26
2022-12-27T23:11:37.580Z,16.20
2022-12-27T23:14:06.947Z,16.18
2022-12-27T23:16:37.628Z,16.12
2022-12-27T23:19:11.896Z,16.05
2022-12-27T23:21:38.785Z,16.01
2022-12-27T23:24:06.428Z,15.98
2022-12-27T23:26:33.094Z,15.94
2022-12-27T23:28:59.999Z,15.90
2022-12-27T23:31:27.763Z,15.86
2022-12-27T23:33:57.468Z,15.86
2022-12-27T23:36:24.370Z,15.80
2022-12-27T23:38:51.285Z,15.76
2022-12-27T23:41:21.629Z,15.72
2022-12-27T23:43:52.757Z,15.70
2022-12-27T23:46:22.369Z,15.66
2022-12-27T23:48:50.093Z,15.63
2022-12-27T23:51:17.266Z,15.59
2022-12-27T23:53:44.271Z,15.58
2022-12-27T23:56:21.032Z,15.54
2022-12-27T23:58:49.789Z,15.51
